sensor_id;sensor_type;location;lat;lon;timestamp;temperature;humidity
18335;DHT22;9293;49.524;10.964;2023-07-09T00:02:19;19.90;99.90
18335;DHT22;9293;49.524;10.964;2023-07-09T00:04:47;20.00;99.90
18335;DHT22;9293;49.524;10.964;2023-07-09T00:09:44;19.80;99.90
18335;DHT22;9293;49.524;10.964;2023-07-09T00:12:13;19.80;99.90
18335;DHT22;9293;49.524;10.964;2023-07-09T00:14:42;19.90;99.90
18335;DHT22;9293;49.524;10.964;2023-07-09T00:17:11;20.00;99.90
18335;DHT22;9293;49.524;10.964;2023-07-09T00:19:40;20.00;99.90
18335;DHT22;9293;49.524;10.964;2023-07-09T00:22:10;20.00;99.90
18335;DHT22;9293;49.524;10.964;2023-07-09T00:24:46;19.90;99.90
18335;DHT22;9293;49.524;10.964;2023-07-09T00:27:19;20.00;99.90
18335;DHT22;9293;49.524;10.964;2023-07-09T00:29:47;19.90;99.90
18335;DHT22;9293;49.524;10.964;2023-07-09T00:32:17;19.90;99.90
18335;DHT22;9293;49.524;10.964;2023-07-09T00:34:48;19.90;99.90
18335;DHT22;9293;49.524;10.964;2023-07-09T00:37:18;19.90;99.90
18335;DHT22;9293;49.524;10.964;2023-07-09T00:39:47;19.60;99.90
18335;DHT22;9293;49.524;10.964;2023-07-09T00:42:17;19.50;99.90
18335;DHT22;9293;49.524;10.964;2023-07-09T00:44:47;19.30;99.90
18335;DHT22;9293;49.524;10.964;2023-07-09T00:47:18;19.30;99.90
18335;DHT22;9293;49.524;10.964;2023-07-09T00:49:49;19.30;99.90
18335;DHT22;9293;49.524;10.964;2023-07-09T00:52:28;19.40;99.90
18335;DHT22;9293;49.524;10.964;2023-07-09T00:55:03;19.50;99.90
18335;DHT22;9293;49.524;10.964;2023-07-09T00:57:35;19.40;99.90
18335;DHT22;9293;49.524;10.964;2023-07-09T01:00:07;19.30;99.90
18335;DHT22;9293;49.524;10.964;2023-07-09T01:02:41;19.20;99.90
18335;DHT22;9293;49.524;10.964;2023-07-09T01:05:12;19.10;99.90
18335;DHT22;9293;49.524;10.964;2023-07-09T01:07:43;19.10;99.90
18335;DHT22;9293;49.524;10.964;2023-07-09T01:10:14;19.10;99.90
18335;DHT22;9293;49.524;10.964;2023-07-09T01:12:44;19.20;99.90
18335;DHT22;9293;49.524;10.964;2023-07-09T01:15:13;19.30;99.90
18335;DHT22;9293;49.524;10.964;2023-07-09T01:17:43;19.40;99.90
18335;DHT22;9293;49.524;10.964;2023-07-09T01:20:16;19.40;99.90
18335;DHT22;9293;49.524;10.964;2023-07-09T01:22:49;19.50;99.90
18335;DHT22;9293;49.524;10.964;2023-07-09T01:25:18;19.50;99.90
18335;DHT22;9293;49.524;10.964;2023-07-09T01:27:47;19.30;99.90
18335;DHT22;9293;49.524;10.964;2023-07-09T01:30:17;19.30;99.90
18335;DHT22;9293;49.524;10.964;2023-07-09T01:32:50;19.20;99.90
18335;DHT22;9293;49.524;10.964;2023-07-09T01:35:20;19.00;99.90
18335;DHT22;9293;49.524;10.964;2023-07-09T01:37:49;19.00;99.90
18335;DHT22;9293;49.524;10.964;2023-07-09T01:40:19;18.90;99.90
18335;DHT22;9293;49.524;10.964;2023-07-09T01:42:58;18.90;99.90
18335;DHT22;9293;49.524;10.964;2023-07-09T01:45:30;18.90;99.90
18335;DHT22;9293;49.524;10.964;2023-07-09T01:48:02;19.00;99.90
18335;DHT22;9293;49.524;10.964;2023-07-09T01:50:31;19.00;99.90
18335;DHT22;9293;49.524;10.964;2023-07-09T01:52:59;19.10;99.90
18335;DHT22;9293;49.524;10.964;2023-07-09T01:55:28;19.00;99.90
18335;DHT22;9293;49.524;10.964;2023-07-09T01:57:57;18.80;99.90
18335;DHT22;9293;49.524;10.964;2023-07-09T02:00:26;18.80;99.90
18335;DHT22;9293;49.524;10.964;2023-07-09T02:02:54;18.80;99.90
18335;DHT22;9293;49.524;10.964;2023-07-09T02:05:23;18.70;99.90
18335;DHT22;9293;49.524;10.964;2023-07-09T02:07:52;18.60;99.90
18335;DHT22;9293;49.524;10.964;2023-07-09T02:10:21;18.50;99.90
18335;DHT22;9293;49.524;10.964;2023-07-09T02:12:49;18.50;99.90
18335;DHT22;9293;49.524;10.964;2023-07-09T02:15:18;18.50;99.90
18335;DHT22;9293;49.524;10.964;2023-07-09T02:17:46;18.50;99.90
18335;DHT22;9293;49.524;10.964;2023-07-09T02:20:15;18.50;99.90
18335;DHT22;9293;49.524;10.964;2023-07-09T02:22:43;18.60;99.90
18335;DHT22;9293;49.524;10.964;2023-07-09T02:25:12;18.60;99.90
18335;DHT22;9293;49.524;10.964;2023-07-09T02:27:40;18.60;99.90
18335;DHT22;9293;49.524;10.964;2023-07-09T02:30:09;18.60;99.90
18335;DHT22;9293;49.524;10.964;2023-07-09T02:32:39;18.60;99.90
18335;DHT22;9293;49.524;10.964;2023-07-09T02:35:09;18.60;99.90
18335;DHT22;9293;49.524;10.964;2023-07-09T02:37:38;18.50;99.90
18335;DHT22;9293;49.524;10.964;2023-07-09T02:40:07;18.50;99.90
18335;DHT22;9293;49.524;10.964;2023-07-09T02:42:37;18.60;99.90
18335;DHT22;9293;49.524;10.964;2023-07-09T02:45:05;18.60;99.90
18335;DHT22;9293;49.524;10.964;2023-07-09T02:47:34;18.60;99.90
18335;DHT22;9293;49.524;10.964;2023-07-09T02:50:03;18.70;99.90
18335;DHT22;9293;49.524;10.964;2023-07-09T02:52:31;18.60;99.90
18335;DHT22;9293;49.524;10.964;2023-07-09T02:54:59;18.60;99.90
18335;DHT22;9293;49.524;10.964;2023-07-09T02:57:28;18.60;99.90
18335;DHT22;9293;49.524;10.964;2023-07-09T02:59:56;18.60;99.90
18335;DHT22;9293;49.524;10.964;2023-07-09T03:02:24;18.60;99.90
18335;DHT22;9293;49.524;10.964;2023-07-09T03:04:54;18.60;99.90
18335;DHT22;9293;49.524;10.964;2023-07-09T03:07:23;18.60;99.90
18335;DHT22;9293;49.524;10.964;2023-07-09T03:09:51;18.60;99.90
18335;DHT22;9293;49.524;10.964;2023-07-09T03:12:19;18.50;99.90
18335;DHT22;9293;49.524;10.964;2023-07-09T03:14:48;18.30;99.90
18335;DHT22;9293;49.524;10.964;2023-07-09T03:17:17;18.20;99.90
18335;DHT22;9293;49.524;10.964;2023-07-09T03:19:45;18.10;99.90
18335;DHT22;9293;49.524;10.964;2023-07-09T03:22:16;17.90;99.90
18335;DHT22;9293;49.524;10.964;2023-07-09T03:24:51;18.00;99.90
18335;DHT22;9293;49.524;10.964;2023-07-09T03:27:19;18.10;99.90
18335;DHT22;9293;49.524;10.964;2023-07-09T03:29:48;18.20;99.90
18335;DHT22;9293;49.524;10.964;2023-07-09T03:32:16;18.30;99.90
18335;DHT22;9293;49.524;10.964;2023-07-09T03:34:44;18.30;99.90
18335;DHT22;9293;49.524;10.964;2023-07-09T03:37:13;18.40;99.90
18335;DHT22;9293;49.524;10.964;2023-07-09T03:39:41;18.30;99.90
18335;DHT22;9293;49.524;10.964;2023-07-09T03:42:09;18.20;99.90
18335;DHT22;9293;49.524;10.964;2023-07-09T03:44:38;18.00;99.90
18335;DHT22;9293;49.524;10.964;2023-07-09T03:47:06;18.00;99.90
18335;DHT22;9293;49.524;10.964;2023-07-09T03:49:35;18.00;99.90
18335;DHT22;9293;49.524;10.964;2023-07-09T03:52:03;18.00;99.90
18335;DHT22;9293;49.524;10.964;2023-07-09T03:54:32;18.00;99.90
18335;DHT22;9293;49.524;10.964;2023-07-09T03:57:00;18.00;99.90
18335;DHT22;9293;49.524;10.964;2023-07-09T03:59:28;18.10;99.90
18335;DHT22;9293;49.524;10.964;2023-07-09T04:01:56;18.20;99.90
18335;DHT22;9293;49.524;10.964;2023-07-09T04:04:25;18.30;99.90
18335;DHT22;9293;49.524;10.964;2023-07-09T04:06:53;18.30;99.90
18335;DHT22;9293;49.524;10.964;2023-07-09T04:09:21;18.40;99.90
18335;DHT22;9293;49.524;10.964;2023-07-09T04:11:49;18.50;99.90
18335;DHT22;9293;49.524;10.964;2023-07-09T04:14:17;18.50;99.90
18335;DHT22;9293;49.524;10.964;2023-07-09T04:16:46;18.60;99.90
18335;DHT22;9293;49.524;10.964;2023-07-09T04:19:14;18.70;99.90
18335;DHT22;9293;49.524;10.964;2023-07-09T04:21:42;18.70;99.90
18335;DHT22;9293;49.524;10.964;2023-07-09T04:24:11;18.80;99.90
18335;DHT22;9293;49.524;10.964;2023-07-09T04:26:39;18.70;99.90
18335;DHT22;9293;49.524;10.964;2023-07-09T04:29:09;18.80;99.90
18335;DHT22;9293;49.524;10.964;2023-07-09T04:31:38;18.90;99.90
18335;DHT22;9293;49.524;10.964;2023-07-09T04:34:06;18.90;99.90
18335;DHT22;9293;49.524;10.964;2023-07-09T04:36:35;18.90;99.90
18335;DHT22;9293;49.524;10.964;2023-07-09T04:39:03;19.00;99.90
18335;DHT22;9293;49.524;10.964;2023-07-09T04:41:32;19.10;99.90
18335;DHT22;9293;49.524;10.964;2023-07-09T04:44:01;19.10;99.90
18335;DHT22;9293;49.524;10.964;2023-07-09T04:46:29;19.10;99.90
18335;DHT22;9293;49.524;10.964;2023-07-09T04:48:57;19.20;99.90
18335;DHT22;9293;49.524;10.964;2023-07-09T04:51:26;19.30;99.90
18335;DHT22;9293;49.524;10.964;2023-07-09T04:53:54;19.40;99.90
18335;DHT22;9293;49.524;10.964;2023-07-09T04:56:23;19.40;99.90
18335;DHT22;9293;49.524;10.964;2023-07-09T04:58:51;19.50;99.90
18335;DHT22;9293;49.524;10.964;2023-07-09T05:01:20;19.60;99.90
18335;DHT22;9293;49.524;10.964;2023-07-09T05:03:48;19.60;99.90
18335;DHT22;9293;49.524;10.964;2023-07-09T05:06:17;19.70;99.90
18335;DHT22;9293;49.524;10.964;2023-07-09T05:08:45;19.80;99.90
18335;DHT22;9293;49.524;10.964;2023-07-09T05:11:14;19.90;99.90
18335;DHT22;9293;49.524;10.964;2023-07-09T05:13:42;20.00;99.90
18335;DHT22;9293;49.524;10.964;2023-07-09T05:16:22;20.00;99.90
18335;DHT22;9293;49.524;10.964;2023-07-09T05:18:52;20.10;99.90
18335;DHT22;9293;49.524;10.964;2023-07-09T05:21:20;20.20;99.90
18335;DHT22;9293;49.524;10.964;2023-07-09T05:23:49;20.30;99.90
18335;DHT22;9293;49.524;10.964;2023-07-09T05:26:39;20.40;99.90
18335;DHT22;9293;49.524;10.964;2023-07-09T05:29:09;20.50;99.90
18335;DHT22;9293;49.524;10.964;2023-07-09T05:31:38;20.60;99.90
18335;DHT22;9293;49.524;10.964;2023-07-09T05:34:06;20.60;99.90
18335;DHT22;9293;49.524;10.964;2023-07-09T05:36:35;20.70;99.90
18335;DHT22;9293;49.524;10.964;2023-07-09T05:39:03;20.80;99.90
18335;DHT22;9293;49.524;10.964;2023-07-09T05:41:32;20.90;99.90
18335;DHT22;9293;49.524;10.964;2023-07-09T05:44:00;21.00;99.90
18335;DHT22;9293;49.524;10.964;2023-07-09T05:46:28;21.10;99.90
18335;DHT22;9293;49.524;10.964;2023-07-09T05:49:02;21.20;99.90
18335;DHT22;9293;49.524;10.964;2023-07-09T05:51:33;21.30;99.90
18335;DHT22;9293;49.524;10.964;2023-07-09T05:54:34;21.40;99.90
18335;DHT22;9293;49.524;10.964;2023-07-09T05:57:55;21.60;99.90
18335;DHT22;9293;49.524;10.964;2023-07-09T06:00:26;21.80;99.90
18335;DHT22;9293;49.524;10.964;2023-07-09T06:03:02;21.90;99.90
18335;DHT22;9293;49.524;10.964;2023-07-09T06:06:11;22.00;99.90
18335;DHT22;9293;49.524;10.964;2023-07-09T06:09:19;22.20;99.90
18335;DHT22;9293;49.524;10.964;2023-07-09T06:11:53;22.40;99.90
18335;DHT22;9293;49.524;10.964;2023-07-09T06:14:22;22.60;99.90
18335;DHT22;9293;49.524;10.964;2023-07-09T06:16:50;22.70;99.90
18335;DHT22;9293;49.524;10.964;2023-07-09T06:23:15;23.00;99.90
18335;DHT22;9293;49.524;10.964;2023-07-09T06:25:46;23.20;99.90
18335;DHT22;9293;49.524;10.964;2023-07-09T06:29:05;23.30;99.90
18335;DHT22;9293;49.524;10.964;2023-07-09T06:32:04;23.60;99.90
18335;DHT22;9293;49.524;10.964;2023-07-09T06:35:30;23.80;99.90
18335;DHT22;9293;49.524;10.964;2023-07-09T06:38:07;24.10;99.90
18335;DHT22;9293;49.524;10.964;2023-07-09T06:40:35;24.30;99.90
18335;DHT22;9293;49.524;10.964;2023-07-09T06:43:03;24.40;99.90
18335;DHT22;9293;49.524;10.964;2023-07-09T06:46:21;24.60;99.90
18335;DHT22;9293;49.524;10.964;2023-07-09T06:48:49;25.00;99.90
18335;DHT22;9293;49.524;10.964;2023-07-09T06:51:20;25.30;99.90
18335;DHT22;9293;49.524;10.964;2023-07-09T06:53:51;25.50;99.90
18335;DHT22;9293;49.524;10.964;2023-07-09T06:56:22;25.70;99.90
18335;DHT22;9293;49.524;10.964;2023-07-09T06:58:52;25.90;99.90
18335;DHT22;9293;49.524;10.964;2023-07-09T07:01:23;26.10;99.90
18335;DHT22;9293;49.524;10.964;2023-07-09T07:03:54;26.40;99.90
18335;DHT22;9293;49.524;10.964;2023-07-09T07:07:04;26.50;99.90
18335;DHT22;9293;49.524;10.964;2023-07-09T07:09:33;26.70;99.90
18335;DHT22;9293;49.524;10.964;2023-07-09T07:12:02;26.90;99.90
18335;DHT22;9293;49.524;10.964;2023-07-09T07:14:30;27.10;99.90
18335;DHT22;9293;49.524;10.964;2023-07-09T07:16:59;27.30;99.90
18335;DHT22;9293;49.524;10.964;2023-07-09T07:19:28;27.50;99.90
18335;DHT22;9293;49.524;10.964;2023-07-09T07:21:56;27.70;99.90
18335;DHT22;9293;49.524;10.964;2023-07-09T07:24:24;27.90;99.90
18335;DHT22;9293;49.524;10.964;2023-07-09T07:26:52;28.00;99.90
18335;DHT22;9293;49.524;10.964;2023-07-09T07:29:20;28.20;99.90
18335;DHT22;9293;49.524;10.964;2023-07-09T07:31:49;28.40;99.90
18335;DHT22;9293;49.524;10.964;2023-07-09T07:34:17;28.50;99.90
18335;DHT22;9293;49.524;10.964;2023-07-09T07:36:45;28.80;99.90
18335;DHT22;9293;49.524;10.964;2023-07-09T07:39:13;29.00;99.90
18335;DHT22;9293;49.524;10.964;2023-07-09T07:41:43;29.20;99.90
18335;DHT22;9293;49.524;10.964;2023-07-09T07:44:11;29.40;99.90
18335;DHT22;9293;49.524;10.964;2023-07-09T07:46:39;29.60;99.90
18335;DHT22;9293;49.524;10.964;2023-07-09T07:49:08;29.60;99.90
18335;DHT22;9293;49.524;10.964;2023-07-09T07:51:36;29.80;99.90
18335;DHT22;9293;49.524;10.964;2023-07-09T07:54:05;29.90;99.90
18335;DHT22;9293;49.524;10.964;2023-07-09T07:56:34;30.20;99.90
18335;DHT22;9293;49.524;10.964;2023-07-09T07:59:04;30.40;99.90
18335;DHT22;9293;49.524;10.964;2023-07-09T08:01:33;30.50;99.90
18335;DHT22;9293;49.524;10.964;2023-07-09T08:04:06;30.50;99.90
18335;DHT22;9293;49.524;10.964;2023-07-09T08:06:38;30.60;99.90
18335;DHT22;9293;49.524;10.964;2023-07-09T08:09:06;30.60;99.90
18335;DHT22;9293;49.524;10.964;2023-07-09T08:11:34;30.80;99.90
18335;DHT22;9293;49.524;10.964;2023-07-09T08:14:02;30.90;99.90
18335;DHT22;9293;49.524;10.964;2023-07-09T08:16:31;31.10;99.90
18335;DHT22;9293;49.524;10.964;2023-07-09T08:18:59;31.30;99.90
18335;DHT22;9293;49.524;10.964;2023-07-09T08:21:31;31.30;99.90
18335;DHT22;9293;49.524;10.964;2023-07-09T08:23:59;31.50;99.90
18335;DHT22;9293;49.524;10.964;2023-07-09T08:26:28;31.70;99.90
18335;DHT22;9293;49.524;10.964;2023-07-09T08:28:56;31.90;99.90
18335;DHT22;9293;49.524;10.964;2023-07-09T08:31:26;31.90;99.90
18335;DHT22;9293;49.524;10.964;2023-07-09T08:33:55;32.10;99.90
18335;DHT22;9293;49.524;10.964;2023-07-09T08:36:23;32.30;99.90
18335;DHT22;9293;49.524;10.964;2023-07-09T08:38:53;32.50;99.90
18335;DHT22;9293;49.524;10.964;2023-07-09T08:47:04;32.60;99.80
18335;DHT22;9293;49.524;10.964;2023-07-09T08:49:57;32.80;98.50
18335;DHT22;9293;49.524;10.964;2023-07-09T08:52:28;32.90;99.10
18335;DHT22;9293;49.524;10.964;2023-07-09T08:54:59;32.90;97.40
18335;DHT22;9293;49.524;10.964;2023-07-09T08:57:31;33.20;97.40
18335;DHT22;9293;49.524;10.964;2023-07-09T09:00:13;33.20;97.20
18335;DHT22;9293;49.524;10.964;2023-07-09T09:02:49;33.30;96.80
18335;DHT22;9293;49.524;10.964;2023-07-09T09:05:21;33.60;96.70
18335;DHT22;9293;49.524;10.964;2023-07-09T09:07:54;33.80;95.90
18335;DHT22;9293;49.524;10.964;2023-07-09T09:10:27;34.10;95.60
18335;DHT22;9293;49.524;10.964;2023-07-09T09:13:03;34.10;94.80
18335;DHT22;9293;49.524;10.964;2023-07-09T09:15:33;34.00;94.00
18335;DHT22;9293;49.524;10.964;2023-07-09T09:18:21;34.20;94.10
18335;DHT22;9293;49.524;10.964;2023-07-09T09:20:54;34.30;93.40
18335;DHT22;9293;49.524;10.964;2023-07-09T09:23:25;34.30;93.10
18335;DHT22;9293;49.524;10.964;2023-07-09T09:25:56;34.50;92.90
18335;DHT22;9293;49.524;10.964;2023-07-09T09:28:41;34.60;93.60
18335;DHT22;9293;49.524;10.964;2023-07-09T09:31:10;34.90;92.40
18335;DHT22;9293;49.524;10.964;2023-07-09T09:33:42;34.90;91.90
18335;DHT22;9293;49.524;10.964;2023-07-09T09:36:19;34.90;91.90
18335;DHT22;9293;49.524;10.964;2023-07-09T09:38:47;34.90;92.40
18335;DHT22;9293;49.524;10.964;2023-07-09T09:41:22;34.90;90.40
18335;DHT22;9293;49.524;10.964;2023-07-09T09:43:51;35.00;89.60
18335;DHT22;9293;49.524;10.964;2023-07-09T09:46:22;34.90;89.20
18335;DHT22;9293;49.524;10.964;2023-07-09T09:48:51;35.00;88.60
18335;DHT22;9293;49.524;10.964;2023-07-09T09:51:22;35.10;88.60
18335;DHT22;9293;49.524;10.964;2023-07-09T09:53:58;35.20;89.60
18335;DHT22;9293;49.524;10.964;2023-07-09T09:56:33;35.40;87.30
18335;DHT22;9293;49.524;10.964;2023-07-09T09:59:02;35.50;86.00
18335;DHT22;9293;49.524;10.964;2023-07-09T10:01:32;35.50;84.80
18335;DHT22;9293;49.524;10.964;2023-07-09T10:04:06;35.60;87.40
18335;DHT22;9293;49.524;10.964;2023-07-09T10:06:41;35.70;85.40
18335;DHT22;9293;49.524;10.964;2023-07-09T10:09:23;35.20;85.40
18335;DHT22;9293;49.524;10.964;2023-07-09T10:11:58;35.40;82.60
18335;DHT22;9293;49.524;10.964;2023-07-09T10:19:44;35.50;83.30
18335;DHT22;9293;49.524;10.964;2023-07-09T10:22:34;35.60;81.00
18335;DHT22;9293;49.524;10.964;2023-07-09T10:27:51;35.40;81.40
18335;DHT22;9293;49.524;10.964;2023-07-09T10:40:39;35.70;80.40
18335;DHT22;9293;49.524;10.964;2023-07-09T10:43:10;36.20;76.70
18335;DHT22;9293;49.524;10.964;2023-07-09T10:45:47;35.90;75.40
18335;DHT22;9293;49.524;10.964;2023-07-09T10:48:23;36.10;78.10
18335;DHT22;9293;49.524;10.964;2023-07-09T10:50:54;36.30;77.80
18335;DHT22;9293;49.524;10.964;2023-07-09T10:53:28;36.50;78.00
18335;DHT22;9293;49.524;10.964;2023-07-09T10:55:59;36.50;75.50
18335;DHT22;9293;49.524;10.964;2023-07-09T10:58:39;36.40;75.60
18335;DHT22;9293;49.524;10.964;2023-07-09T11:01:12;36.40;74.90
18335;DHT22;9293;49.524;10.964;2023-07-09T11:06:32;36.40;74.80
18335;DHT22;9293;49.524;10.964;2023-07-09T11:11:47;36.40;74.70
18335;DHT22;9293;49.524;10.964;2023-07-09T11:17:04;36.80;73.40
18335;DHT22;9293;49.524;10.964;2023-07-09T11:19:40;36.90;73.30
18335;DHT22;9293;49.524;10.964;2023-07-09T11:22:16;36.80;72.00
18335;DHT22;9293;49.524;10.964;2023-07-09T11:24:48;36.80;73.70
18335;DHT22;9293;49.524;10.964;2023-07-09T11:27:23;36.80;71.70
18335;DHT22;9293;49.524;10.964;2023-07-09T11:30:02;36.90;69.40
18335;DHT22;9293;49.524;10.964;2023-07-09T11:32:30;36.80;69.90
18335;DHT22;9293;49.524;10.964;2023-07-09T11:35:05;36.60;69.10
18335;DHT22;9293;49.524;10.964;2023-07-09T11:37:43;36.70;71.70
18335;DHT22;9293;49.524;10.964;2023-07-09T11:40:11;36.70;70.60
18335;DHT22;9293;49.524;10.964;2023-07-09T11:42:47;36.90;70.30
18335;DHT22;9293;49.524;10.964;2023-07-09T11:45:20;37.20;71.30
18335;DHT22;9293;49.524;10.964;2023-07-09T11:47:51;37.50;70.50
18335;DHT22;9293;49.524;10.964;2023-07-09T11:50:28;37.70;69.20
18335;DHT22;9293;49.524;10.964;2023-07-09T11:53:04;37.90;67.60
18335;DHT22;9293;49.524;10.964;2023-07-09T11:55:44;37.90;66.90
18335;DHT22;9293;49.524;10.964;2023-07-09T11:58:15;38.00;65.40
18335;DHT22;9293;49.524;10.964;2023-07-09T12:00:44;38.00;66.70
18335;DHT22;9293;49.524;10.964;2023-07-09T12:03:26;37.70;66.20
18335;DHT22;9293;49.524;10.964;2023-07-09T12:05:56;37.80;66.50
18335;DHT22;9293;49.524;10.964;2023-07-09T12:08:35;37.40;65.90
18335;DHT22;9293;49.524;10.964;2023-07-09T12:11:05;37.30;67.40
18335;DHT22;9293;49.524;10.964;2023-07-09T12:13:39;37.40;68.10
18335;DHT22;9293;49.524;10.964;2023-07-09T12:16:24;37.50;67.80
18335;DHT22;9293;49.524;10.964;2023-07-09T12:18:53;37.70;67.10
18335;DHT22;9293;49.524;10.964;2023-07-09T12:21:22;37.90;65.70
18335;DHT22;9293;49.524;10.964;2023-07-09T12:23:54;37.90;66.40
18335;DHT22;9293;49.524;10.964;2023-07-09T12:26:23;37.90;66.00
18335;DHT22;9293;49.524;10.964;2023-07-09T12:28:52;37.80;65.60
18335;DHT22;9293;49.524;10.964;2023-07-09T12:31:27;37.90;67.20
18335;DHT22;9293;49.524;10.964;2023-07-09T12:33:57;37.90;66.40
18335;DHT22;9293;49.524;10.964;2023-07-09T12:36:26;37.60;65.10
18335;DHT22;9293;49.524;10.964;2023-07-09T12:38:56;37.60;64.80
18335;DHT22;9293;49.524;10.964;2023-07-09T12:41:26;37.40;64.80
18335;DHT22;9293;49.524;10.964;2023-07-09T12:43:55;37.40;65.70
18335;DHT22;9293;49.524;10.964;2023-07-09T12:46:24;37.40;67.70
18335;DHT22;9293;49.524;10.964;2023-07-09T12:48:52;37.40;64.60
18335;DHT22;9293;49.524;10.964;2023-07-09T12:51:23;37.30;64.80
18335;DHT22;9293;49.524;10.964;2023-07-09T12:54:11;37.30;65.40
18335;DHT22;9293;49.524;10.964;2023-07-09T12:56:40;37.40;66.50
18335;DHT22;9293;49.524;10.964;2023-07-09T12:59:16;37.50;65.20
18335;DHT22;9293;49.524;10.964;2023-07-09T13:01:48;37.40;64.60
18335;DHT22;9293;49.524;10.964;2023-07-09T13:04:17;37.00;64.80
18335;DHT22;9293;49.524;10.964;2023-07-09T13:06:46;36.60;64.80
18335;DHT22;9293;49.524;10.964;2023-07-09T13:09:18;36.10;65.50
18335;DHT22;9293;49.524;10.964;2023-07-09T13:11:47;36.10;65.20
18335;DHT22;9293;49.524;10.964;2023-07-09T13:14:16;35.80;65.20
18335;DHT22;9293;49.524;10.964;2023-07-09T13:16:46;35.70;65.40
18335;DHT22;9293;49.524;10.964;2023-07-09T13:19:14;35.80;66.70
18335;DHT22;9293;49.524;10.964;2023-07-09T13:21:42;35.70;66.00
18335;DHT22;9293;49.524;10.964;2023-07-09T13:24:19;35.60;66.00
18335;DHT22;9293;49.524;10.964;2023-07-09T13:26:49;35.80;64.60
18335;DHT22;9293;49.524;10.964;2023-07-09T13:29:18;36.00;66.20
18335;DHT22;9293;49.524;10.964;2023-07-09T13:31:47;36.30;66.20
18335;DHT22;9293;49.524;10.964;2023-07-09T13:34:23;36.70;64.70
18335;DHT22;9293;49.524;10.964;2023-07-09T13:36:52;36.80;62.40
18335;DHT22;9293;49.524;10.964;2023-07-09T13:39:21;37.00;64.60
18335;DHT22;9293;49.524;10.964;2023-07-09T13:41:53;37.30;63.70
18335;DHT22;9293;49.524;10.964;2023-07-09T13:44:23;37.30;64.10
18335;DHT22;9293;49.524;10.964;2023-07-09T13:46:53;37.30;62.10
18335;DHT22;9293;49.524;10.964;2023-07-09T13:49:22;37.20;62.30
18335;DHT22;9293;49.524;10.964;2023-07-09T13:51:52;37.30;61.60
18335;DHT22;9293;49.524;10.964;2023-07-09T13:54:22;37.40;61.60
18335;DHT22;9293;49.524;10.964;2023-07-09T13:56:52;37.50;62.90
18335;DHT22;9293;49.524;10.964;2023-07-09T13:59:24;37.80;63.60
18335;DHT22;9293;49.524;10.964;2023-07-09T14:01:53;38.00;60.20
18335;DHT22;9293;49.524;10.964;2023-07-09T14:04:22;38.10;60.70
18335;DHT22;9293;49.524;10.964;2023-07-09T14:06:51;38.10;59.70
18335;DHT22;9293;49.524;10.964;2023-07-09T14:09:19;38.20;60.40
18335;DHT22;9293;49.524;10.964;2023-07-09T14:11:50;38.20;59.80
18335;DHT22;9293;49.524;10.964;2023-07-09T14:14:23;38.40;59.50
18335;DHT22;9293;49.524;10.964;2023-07-09T14:16:52;38.30;59.40
18335;DHT22;9293;49.524;10.964;2023-07-09T14:19:21;38.30;59.50
18335;DHT22;9293;49.524;10.964;2023-07-09T14:21:53;38.20;58.30
18335;DHT22;9293;49.524;10.964;2023-07-09T14:24:22;38.10;59.50
18335;DHT22;9293;49.524;10.964;2023-07-09T14:26:51;37.80;58.80
18335;DHT22;9293;49.524;10.964;2023-07-09T14:29:20;37.70;59.70
18335;DHT22;9293;49.524;10.964;2023-07-09T14:31:48;37.90;60.10
18335;DHT22;9293;49.524;10.964;2023-07-09T14:36:49;37.90;58.80
18335;DHT22;9293;49.524;10.964;2023-07-09T14:39:17;37.90;58.10
18335;DHT22;9293;49.524;10.964;2023-07-09T14:41:46;37.90;60.30
18335;DHT22;9293;49.524;10.964;2023-07-09T14:44:19;38.00;60.90
18335;DHT22;9293;49.524;10.964;2023-07-09T14:46:50;37.80;61.10
18335;DHT22;9293;49.524;10.964;2023-07-09T14:49:19;37.60;60.00
18335;DHT22;9293;49.524;10.964;2023-07-09T14:51:48;37.50;60.50
18335;DHT22;9293;49.524;10.964;2023-07-09T14:54:21;37.40;61.80
18335;DHT22;9293;49.524;10.964;2023-07-09T14:56:51;37.20;61.80
18335;DHT22;9293;49.524;10.964;2023-07-09T14:59:23;36.90;60.50
18335;DHT22;9293;49.524;10.964;2023-07-09T15:01:54;36.60;60.90
18335;DHT22;9293;49.524;10.964;2023-07-09T15:06:55;36.00;60.50
18335;DHT22;9293;49.524;10.964;2023-07-09T15:09:25;35.90;60.70
18335;DHT22;9293;49.524;10.964;2023-07-09T15:11:57;35.70;60.90
18335;DHT22;9293;49.524;10.964;2023-07-09T15:14:26;35.50;61.00
18335;DHT22;9293;49.524;10.964;2023-07-09T15:16:54;35.30;61.00
18335;DHT22;9293;49.524;10.964;2023-07-09T15:19:27;35.20;61.50
18335;DHT22;9293;49.524;10.964;2023-07-09T15:21:55;35.20;61.80
18335;DHT22;9293;49.524;10.964;2023-07-09T15:24:28;35.00;63.20
18335;DHT22;9293;49.524;10.964;2023-07-09T15:26:57;34.80;61.70
18335;DHT22;9293;49.524;10.964;2023-07-09T15:29:28;34.80;65.40
18335;DHT22;9293;49.524;10.964;2023-07-09T15:31:58;35.10;64.10
18335;DHT22;9293;49.524;10.964;2023-07-09T15:34:26;35.40;61.40
18335;DHT22;9293;49.524;10.964;2023-07-09T15:36:54;35.30;62.10
18335;DHT22;9293;49.524;10.964;2023-07-09T15:39:22;35.20;62.80
18335;DHT22;9293;49.524;10.964;2023-07-09T15:41:50;35.40;63.90
18335;DHT22;9293;49.524;10.964;2023-07-09T15:44:18;35.50;65.90
18335;DHT22;9293;49.524;10.964;2023-07-09T15:46:51;35.70;67.00
18335;DHT22;9293;49.524;10.964;2023-07-09T15:49:19;35.90;65.80
18335;DHT22;9293;49.524;10.964;2023-07-09T15:51:48;36.00;63.10
18335;DHT22;9293;49.524;10.964;2023-07-09T15:54:17;36.10;62.70
18335;DHT22;9293;49.524;10.964;2023-07-09T15:56:45;36.10;62.30
18335;DHT22;9293;49.524;10.964;2023-07-09T15:59:36;36.20;61.20
18335;DHT22;9293;49.524;10.964;2023-07-09T16:02:08;36.20;61.50
18335;DHT22;9293;49.524;10.964;2023-07-09T16:04:37;36.10;61.70
18335;DHT22;9293;49.524;10.964;2023-07-09T16:07:05;36.00;61.30
18335;DHT22;9293;49.524;10.964;2023-07-09T16:09:34;35.90;62.00
18335;DHT22;9293;49.524;10.964;2023-07-09T16:12:02;35.90;62.10
18335;DHT22;9293;49.524;10.964;2023-07-09T16:14:31;35.70;62.40
18335;DHT22;9293;49.524;10.964;2023-07-09T16:17:00;35.70;63.10
18335;DHT22;9293;49.524;10.964;2023-07-09T16:19:30;35.60;64.50
18335;DHT22;9293;49.524;10.964;2023-07-09T16:22:01;35.60;62.80
18335;DHT22;9293;49.524;10.964;2023-07-09T16:24:31;35.50;63.00
18335;DHT22;9293;49.524;10.964;2023-07-09T16:27:00;35.50;63.60
18335;DHT22;9293;49.524;10.964;2023-07-09T16:29:31;35.40;62.30
18335;DHT22;9293;49.524;10.964;2023-07-09T16:32:00;35.30;61.20
18335;DHT22;9293;49.524;10.964;2023-07-09T16:34:30;35.20;61.90
18335;DHT22;9293;49.524;10.964;2023-07-09T16:36:59;35.10;62.50
18335;DHT22;9293;49.524;10.964;2023-07-09T16:39:29;35.00;62.60
18335;DHT22;9293;49.524;10.964;2023-07-09T16:41:58;34.90;63.30